Terminal Aerodrome Forecast
Issued by NWS

Home | Current Version | Previous Version | Graphics & Text | Print | Product List | Glossary On
Versions: 1 2 3 4 5 6 7 8 9 10 11 12 13 14 15 16 17 18 19
000
FTUS43 KGRB 270520
TAFCWA
TAF
KCWA 270520Z 2706/2806 28008G15KT 4SM -SHRA BR BKN007 OVC015
      TEMPO 2706/2709 1SM +RA BR
     FM271400 27008KT P6SM BKN015 BKN035
     FM271800 25009G16KT P6SM SCT035 BKN080
     FM280100 22005KT P6SM SCT035 SCT080=

USA.gov is the U.S. government's official web portal to all federal, state and local government web resources and services.